Aeroporto :
LOGIN :

Iscrizione | Disclaimer

   EN    FR    IT 

 










Sommario :    VFR   VFR Marginale   IFR   IFR Intensivo   IFR Molto Intensivo
Visibilità : 
Base nubi : 
>= 8 km
>= 3000ft
5 / 8 km
1000 / 3000 ft
1500m / 5 km
500 / 1000 ft
800 / 1500m
200 / 500 ft
< 800m
< 200 ft
Simboli :   Temporali  Nebbia  Neve Forte  Precipitazioni Forti  Vento > 20 kt
SIGMETs :   Varie  Temporali  Ghiacco  Turbolenza  Onda orograficha  Ceneri Vulcaniche







- Altitudine del aeroporto : 143 ft
- Codice IATA : VDP


EKVD - Kolding Vamdrup

ULTIMO METAR :
  • 200120Z AUTO 06003KT //// ///////// 11/11 Q1008

METARs OBSOLETI :
  • 200050Z AUTO 05003KT //// ///////// 11/10 Q1008
  • 200020Z AUTO 08003KT //// ///////// 11/10 Q1008
  • 192350Z AUTO 05001KT //// ///////// 11/10 Q1008
  • 192320Z AUTO 09004KT 050V160 //// ///////// 12/11 Q1009
  • 192250Z AUTO 03001KT //// ///////// 13/11 Q1008

Previsioni scadute.
Nessun NOTAM noto per questo aeroporto.



MetMap, La meteo Aeronautica in un colpo d'occhio ! - Copyright ORBIFLY Dicembre 2007 - Disclaimer

ORBIFLY MET'MAP TEAM :

Programmazione e sviluppo : Alexandra Zaïnal
Concezione e sviluppo : Baudouin d'Aumeries
Co-Programmazione e sviluppo : Marc-Olivier Méhu
Supporto tecnico e logistico : Manuel Goepfert
Aiuto per la traduzione : Arnaldo La Scala

Contatto : metmap@orbifly.com




FONTI E CREDITI :

   NOAA